createdAt,value
2017-04-11T00:00:29.473Z,0
2017-04-11T00:01:39.392Z,0
2017-04-11T00:02:49.636Z,0
2017-04-11T00:03:59.863Z,0
2017-04-11T00:05:09.781Z,0
2017-04-11T00:06:19.417Z,0
2017-04-11T00:07:29.647Z,0
2017-04-11T00:08:39.565Z,0
2017-04-11T00:09:49.802Z,0
2017-04-11T00:11:00.036Z,0
2017-04-11T00:12:10.271Z,0
2017-04-11T00:13:19.902Z,0
2017-04-11T00:14:29.821Z,0
2017-04-11T00:15:40.047Z,0
2017-04-11T00:16:50.270Z,0
2017-04-11T00:18:00.502Z,0
2017-04-11T00:19:10.423Z,0
2017-04-11T00:20:20.336Z,0
2017-04-11T00:21:30.583Z,0
2017-04-11T00:22:40.507Z,0
2017-04-11T00:23:50.734Z,0
2017-04-11T00:25:00.650Z,0
2017-04-11T00:26:10.560Z,0
2017-04-11T00:27:20.478Z,0
2017-04-11T00:28:30.703Z,0
2017-04-11T00:29:40.925Z,0
2017-04-11T00:30:50.834Z,0
2017-04-11T00:32:01.060Z,0
2017-04-11T00:33:10.667Z,0
2017-04-11T00:34:20.577Z,0
2017-04-11T00:35:30.808Z,0
2017-04-11T00:36:40.756Z,0
2017-04-11T00:37:51.004Z,0
2017-04-11T00:39:00.927Z,0
2017-04-11T00:40:11.161Z,0
2017-04-11T00:41:21.100Z,0
2017-04-11T00:42:31.014Z,0
2017-04-11T00:43:40.933Z,0
2017-04-11T00:44:51.159Z,0
2017-04-11T00:46:01.386Z,0
2017-04-11T00:47:11.636Z,0
2017-04-11T00:48:21.868Z,0
2017-04-11T00:49:32.095Z,0
2017-04-11T00:50:42.014Z,0
2017-04-11T00:51:51.610Z,0
2017-04-11T00:53:01.528Z,0
2017-04-11T00:54:11.768Z,0
2017-04-11T00:55:21.995Z,0
2017-04-11T00:56:32.222Z,0
2017-04-11T00:57:42.454Z,0
2017-04-11T00:58:52.063Z,0
2017-04-11T01:00:02.297Z,0
2017-04-11T01:01:12.222Z,0
2017-04-11T01:02:22.139Z,0
2017-04-11T01:03:31.772Z,0
2017-04-11T01:04:41.372Z,0
2017-04-11T01:05:51.601Z,0
2017-04-11T01:07:01.514Z,0
2017-04-11T01:08:10.819Z,0
2017-04-11T01:09:20.743Z,0
2017-04-11T01:10:30.665Z,0
2017-04-11T01:11:40.594Z,0
2017-04-11T01:12:50.511Z,0
2017-04-11T01:14:00.428Z,0
2017-04-11T01:15:10.350Z,0
2017-04-11T01:16:20.268Z,0
2017-04-11T01:17:30.495Z,0
2017-04-11T01:18:40.731Z,0
2017-04-11T01:19:50.954Z,0
2017-04-11T01:21:00.873Z,0
2017-04-11T01:22:11.099Z,0
2017-04-11T01:23:21.334Z,0
2017-04-11T01:24:31.250Z,0
2017-04-11T01:25:41.171Z,0
2017-04-11T01:26:51.088Z,0
2017-04-11T01:28:01.319Z,0
2017-04-11T01:29:11.237Z,0
2017-04-11T01:30:21.468Z,0
2017-04-11T01:31:31.693Z,0
2017-04-11T01:32:41.613Z,0
2017-04-11T01:33:50.902Z,0
2017-04-11T01:35:01.132Z,0
2017-04-11T01:36:11.371Z,0
2017-04-11T01:37:21.602Z,0
2017-04-11T01:38:31.830Z,0
2017-04-11T01:39:41.435Z,0
2017-04-11T01:40:51.361Z,0
2017-04-11T01:42:01.586Z,0
2017-04-11T01:43:11.845Z,0
2017-04-11T01:44:22.070Z,0
2017-04-11T01:45:32.331Z,0
2017-04-11T01:46:41.618Z,0
2017-04-11T01:47:51.239Z,0
2017-04-11T01:49:01.461Z,0
2017-04-11T01:50:11.701Z,0
2017-04-11T01:51:21.927Z,0
2017-04-11T01:52:31.838Z,0
2017-04-11T01:53:42.086Z,0
2017-04-11T01:54:52.012Z,0
2017-04-11T01:56:01.928Z,0
2017-04-11T01:57:11.888Z,0
2017-04-11T01:58:22.127Z,0
2017-04-11T01:59:32.046Z,0
2017-04-11T02:00:42.278Z,0
2017-04-11T02:01:52.220Z,0
2017-04-11T02:03:02.457Z,0
2017-04-11T02:04:12.687Z,0
2017-04-11T02:05:22.291Z,0
2017-04-11T02:06:32.208Z,0
2017-04-11T02:07:42.437Z,0
2017-04-11T02:08:52.660Z,0
2017-04-11T02:10:02.598Z,0
2017-04-11T02:11:12.873Z,0
2017-04-11T02:12:22.792Z,0
2017-04-11T02:13:32.711Z,0
2017-04-11T02:14:42.937Z,0
2017-04-11T02:15:51.916Z,0
2017-04-11T02:17:02.147Z,0
2017-04-11T02:18:12.382Z,0
2017-04-11T02:19:22.292Z,0
2017-04-11T02:20:32.517Z,0
2017-04-11T02:21:42.763Z,0
2017-04-11T02:22:52.702Z,0
2017-04-11T02:24:02.937Z,0
2017-04-11T02:25:13.176Z,0
2017-04-11T02:26:23.094Z,0
2017-04-11T02:27:32.716Z,0
2017-04-11T02:28:42.643Z,0
2017-04-11T02:29:52.880Z,0
2017-04-11T02:31:02.805Z,0
2017-04-11T02:32:13.029Z,0
2017-04-11T02:33:22.954Z,0
2017-04-11T02:34:33.191Z,0
2017-04-11T02:35:43.108Z,0
2017-04-11T02:36:53.014Z,0
2017-04-11T02:38:03.251Z,0
2017-04-11T02:39:13.183Z,0
2017-04-11T02:40:23.418Z,0
2017-04-11T02:41:33.643Z,0
2017-04-11T02:42:43.563Z,0
2017-04-11T02:43:53.793Z,0
2017-04-11T02:45:04.021Z,0
2017-04-11T02:46:14.268Z,0
2017-04-11T02:47:24.494Z,0
2017-04-11T02:48:34.728Z,0
2017-04-11T02:49:44.640Z,0
2017-04-11T02:50:54.553Z,0
2017-04-11T02:52:04.156Z,0
2017-04-11T02:53:14.074Z,0
2017-04-11T02:54:23.994Z,0
2017-04-11T02:55:34.228Z,0
2017-04-11T02:56:44.148Z,0
2017-04-11T02:57:53.750Z,0
2017-04-11T02:59:03.987Z,0
2017-04-11T03:00:13.910Z,0
2017-04-11T03:01:23.818Z,0
2017-04-11T03:02:34.054Z,0
2017-04-11T03:03:43.980Z,0
2017-04-11T03:04:53.896Z,0
2017-04-11T03:06:04.133Z,0
2017-04-11T03:07:14.051Z,0
2017-04-11T03:08:24.275Z,0
2017-04-11T03:09:34.506Z,0
2017-04-11T03:10:44.425Z,0
2017-04-11T03:11:54.341Z,0
2017-04-11T03:13:04.255Z,0
2017-04-11T03:14:14.499Z,0
2017-04-11T03:15:24.775Z,0
2017-04-11T03:16:35.000Z,0
2017-04-11T03:17:44.597Z,0
2017-04-11T03:18:54.827Z,0
2017-04-11T03:20:04.743Z,0
2017-04-11T03:21:14.656Z,0
2017-04-11T03:22:24.582Z,0
2017-04-11T03:23:34.514Z,0
2017-04-11T03:24:44.750Z,0
2017-04-11T03:25:54.675Z,0
2017-04-11T03:27:04.599Z,0
2017-04-11T03:28:14.514Z,0
2017-04-11T03:29:24.432Z,0
2017-04-11T03:30:34.662Z,0
2017-04-11T03:31:44.892Z,0
2017-04-11T03:32:54.813Z,0
2017-04-11T03:34:05.041Z,0
2017-04-11T03:35:14.961Z,0
2017-04-11T03:36:24.879Z,0
2017-04-11T03:39:15.591Z,0
2017-04-11T03:40:25.508Z,0
2017-04-11T03:41:35.111Z,0
2017-04-11T03:42:45.027Z,0
2017-04-11T03:43:55.255Z,0
2017-04-11T03:45:05.174Z,0
2017-04-11T03:46:15.401Z,0
2017-04-11T03:47:25.624Z,0
2017-04-11T03:48:35.848Z,0
2017-04-11T03:49:45.765Z,0
2017-04-11T03:50:55.982Z,0
2017-04-11T03:52:06.206Z,0
2017-04-11T03:53:16.429Z,0
2017-04-11T03:54:26.659Z,0
2017-04-11T03:55:36.889Z,0
2017-04-11T03:56:46.804Z,0
2017-04-11T03:57:56.716Z,0
2017-04-11T03:59:06.624Z,0
2017-04-11T04:00:16.221Z,0
2017-04-11T04:01:26.128Z,0
2017-04-11T04:02:36.354Z,0
2017-04-11T04:03:46.586Z,0
2017-04-11T04:04:56.515Z,0
2017-04-11T04:06:06.742Z,0
2017-04-11T04:07:16.974Z,0
2017-04-11T04:08:27.207Z,0
2017-04-11T04:09:37.132Z,0
2017-04-11T04:10:47.056Z,0
2017-04-11T04:11:57.283Z,0
2017-04-11T04:13:07.195Z,0
2017-04-11T04:14:17.111Z,0
2017-04-11T04:15:27.338Z,0
2017-04-11T04:16:37.570Z,0
2017-04-11T04:17:47.806Z,0
2017-04-11T04:18:57.409Z,0
2017-04-11T04:20:07.632Z,0
2017-04-11T04:21:17.229Z,0
2017-04-11T04:22:27.462Z,0
2017-04-11T04:23:37.694Z,0
2017-04-11T04:24:47.918Z,0
2017-04-11T04:25:58.138Z,0
2017-04-11T04:27:08.373Z,0
2017-04-11T04:28:18.290Z,0
2017-04-11T04:29:28.509Z,0
2017-04-11T04:30:38.422Z,0
2017-04-11T04:31:48.333Z,0
2017-04-11T04:32:58.243Z,0
2017-04-11T04:34:08.477Z,0
2017-04-11T04:35:18.707Z,0
2017-04-11T04:36:28.931Z,0
2017-04-11T04:37:39.172Z,0
2017-04-11T04:38:48.770Z,0
2017-04-11T04:39:58.367Z,0
2017-04-11T04:41:07.965Z,0
2017-04-11T04:42:18.187Z,0
2017-04-11T04:43:28.099Z,0
2017-04-11T04:44:38.320Z,4
2017-04-11T04:45:48.549Z,4
2017-04-11T04:46:58.780Z,4
2017-04-11T04:48:08.687Z,4
2017-04-11T04:49:18.596Z,0
2017-04-11T04:50:28.814Z,0
2017-04-11T04:51:39.045Z,0
2017-04-11T04:52:49.270Z,0
2017-04-11T04:53:59.496Z,0
2017-04-11T04:55:09.721Z,0
2017-04-11T04:56:19.945Z,4
2017-04-11T04:57:30.167Z,0
2017-04-11T04:58:40.078Z,0
2017-04-11T04:59:49.724Z,0
2017-04-11T05:00:59.957Z,0
2017-04-11T05:02:10.184Z,0
2017-04-11T05:03:19.789Z,4
2017-04-11T05:04:30.019Z,0
2017-04-11T05:05:40.249Z,0
2017-04-11T05:06:50.163Z,0
2017-04-11T05:08:00.085Z,0
2017-04-11T05:09:10.009Z,0
2017-04-11T05:10:18.983Z,0
2017-04-11T05:11:28.894Z,4
2017-04-11T05:12:39.118Z,4
2017-04-11T05:13:49.339Z,4
2017-04-11T05:14:59.561Z,0
2017-04-11T05:16:09.788Z,4
2017-04-11T05:17:19.398Z,0
2017-04-11T05:18:29.635Z,0
2017-04-11T05:19:39.558Z,4
2017-04-11T05:20:49.780Z,4
2017-04-11T05:21:59.378Z,4
2017-04-11T05:23:09.286Z,0
2017-04-11T05:24:18.891Z,4
2017-04-11T05:25:28.807Z,4
2017-04-11T05:26:38.721Z,4
2017-04-11T05:27:48.320Z,4
2017-04-11T05:28:58.548Z,4
2017-04-11T05:30:08.471Z,4
2017-04-11T05:31:18.699Z,4
2017-04-11T05:32:28.925Z,0
2017-04-11T05:33:39.152Z,0
2017-04-11T05:34:49.062Z,4
2017-04-11T05:35:58.673Z,4
2017-04-11T05:37:08.902Z,0
2017-04-11T05:38:18.822Z,4
2017-04-11T05:39:28.416Z,4
2017-04-11T05:40:38.329Z,0
2017-04-11T05:41:48.600Z,4
2017-04-11T05:42:58.826Z,4
2017-04-11T05:44:09.054Z,4
2017-04-11T05:45:19.276Z,0
2017-04-11T05:46:29.501Z,0
2017-04-11T05:47:39.725Z,0
2017-04-11T05:48:49.330Z,0
2017-04-11T05:49:59.552Z,0
2017-04-11T05:51:09.156Z,4
2017-04-11T05:52:18.758Z,4
2017-04-11T05:53:28.986Z,0
2017-04-11T05:54:38.916Z,4
2017-04-11T05:55:49.164Z,0
2017-04-11T05:56:59.383Z,4
2017-04-11T05:58:09.302Z,4
2017-04-11T05:59:19.213Z,4
2017-04-11T06:00:29.127Z,0
2017-04-11T06:01:39.352Z,4
2017-04-11T06:02:49.264Z,4
2017-04-11T06:03:59.489Z,4
2017-04-11T06:05:09.725Z,0
2017-04-11T06:06:19.955Z,4
2017-04-11T06:07:29.871Z,4
2017-04-11T06:08:39.780Z,4
2017-04-11T06:09:50.009Z,0
2017-04-11T06:11:00.232Z,0
2017-04-11T06:12:10.458Z,4
2017-04-11T06:13:20.073Z,4
2017-04-11T06:14:30.306Z,4
2017-04-11T06:15:40.532Z,4
2017-04-11T06:16:50.758Z,4
2017-04-11T06:18:00.670Z,4
2017-04-11T06:19:10.902Z,4
2017-04-11T06:20:21.128Z,4
2017-04-11T06:21:31.354Z,4
2017-04-11T06:22:41.577Z,4
2017-04-11T06:23:51.797Z,4
2017-04-11T06:25:02.032Z,8
2017-04-11T06:26:11.947Z,8
2017-04-11T06:27:22.172Z,8
2017-04-11T06:28:32.435Z,8
2017-04-11T06:29:42.351Z,8
2017-04-11T06:30:52.574Z,8
2017-04-11T06:32:02.810Z,4
2017-04-11T06:33:12.724Z,4
2017-04-11T06:34:22.639Z,8
2017-04-11T06:35:32.238Z,8
2017-04-11T06:36:42.472Z,8
2017-04-11T06:37:52.092Z,12
2017-04-11T06:39:02.002Z,8
2017-04-11T06:40:11.913Z,8
2017-04-11T06:41:21.834Z,8
2017-04-11T06:42:32.065Z,4
2017-04-11T06:43:42.298Z,12
2017-04-11T06:44:52.522Z,8
2017-04-11T06:46:02.122Z,8
2017-04-11T06:47:12.354Z,4
2017-04-11T06:48:21.957Z,4
2017-04-11T06:49:31.559Z,4
2017-04-11T06:50:41.788Z,4
2017-04-11T06:51:51.703Z,8
2017-04-11T06:53:01.934Z,8
2017-04-11T06:54:12.160Z,12
2017-04-11T06:55:22.123Z,12
2017-04-11T06:56:32.345Z,12
2017-04-11T06:57:42.276Z,8
2017-04-11T06:58:52.506Z,8
2017-04-11T07:00:02.726Z,8
2017-04-11T07:01:12.958Z,8
2017-04-11T07:02:22.870Z,4
2017-04-11T07:03:32.483Z,4
2017-04-11T07:04:42.396Z,4
2017-04-11T07:05:52.628Z,4
2017-04-11T07:07:02.239Z,4
2017-04-11T07:08:11.840Z,4
2017-04-11T07:09:21.134Z,8
2017-04-11T07:10:31.358Z,12
2017-04-11T07:11:41.585Z,8
2017-04-11T07:12:51.839Z,12
2017-04-11T07:14:01.755Z,12
2017-04-11T07:15:11.668Z,8
2017-04-11T07:16:21.260Z,8
2017-04-11T07:17:31.165Z,8
2017-04-11T07:18:41.393Z,8
2017-04-11T07:19:51.309Z,4
2017-04-11T07:21:01.225Z,4
2017-04-11T07:22:11.457Z,4
2017-04-11T07:23:21.369Z,4
2017-04-11T07:24:31.285Z,4
2017-04-11T07:25:41.192Z,4
2017-04-11T07:26:51.416Z,4
2017-04-11T07:28:01.640Z,4
2017-04-11T07:29:11.558Z,4
2017-04-11T07:30:21.779Z,4
2017-04-11T07:31:32.055Z,8
2017-04-11T07:32:42.279Z,4
2017-04-11T07:33:51.870Z,4
2017-04-11T07:35:02.089Z,4
2017-04-11T07:36:12.011Z,4
2017-04-11T07:37:21.925Z,4
2017-04-11T07:38:31.834Z,0
2017-04-11T07:39:41.432Z,0
2017-04-11T07:40:51.655Z,0
2017-04-11T07:42:01.566Z,4
2017-04-11T07:43:11.170Z,4
2017-04-11T07:44:21.399Z,4
2017-04-11T07:45:31.008Z,4
2017-04-11T07:46:41.232Z,4
2017-04-11T07:47:50.833Z,4
2017-04-11T07:49:00.759Z,0
2017-04-11T07:50:10.671Z,0
2017-04-11T07:51:20.892Z,4
2017-04-11T07:52:31.123Z,4
2017-04-11T07:53:41.352Z,0
2017-04-11T07:54:50.950Z,4
2017-04-11T07:56:00.856Z,0
2017-04-11T07:57:11.097Z,4
2017-04-11T07:58:21.324Z,4
2017-04-11T07:59:31.544Z,4
2017-04-11T08:00:41.463Z,4
2017-04-11T08:01:51.688Z,0
2017-04-11T08:03:01.603Z,0
2017-04-11T08:04:11.836Z,0
2017-04-11T08:05:22.116Z,4
2017-04-11T08:06:32.036Z,0
2017-04-11T08:07:41.954Z,4
2017-04-11T08:08:52.174Z,4
2017-04-11T08:10:02.085Z,4
2017-04-11T08:11:12.344Z,4
2017-04-11T08:12:22.265Z,4
2017-04-11T08:13:32.178Z,4
2017-04-11T08:14:42.409Z,4
2017-04-11T08:15:52.644Z,4
2017-04-11T08:17:02.555Z,4
2017-04-11T08:18:12.469Z,8
2017-04-11T08:19:21.757Z,4
2017-04-11T08:20:31.979Z,4
2017-04-11T08:21:42.209Z,4
2017-04-11T08:22:52.121Z,4
2017-04-11T08:24:02.346Z,4
2017-04-11T08:25:12.266Z,4
2017-04-11T08:26:22.188Z,4
2017-04-11T08:27:31.787Z,4
2017-04-11T08:28:42.019Z,4
2017-04-11T08:29:51.644Z,4
2017-04-11T08:31:01.552Z,4
2017-04-11T08:32:11.782Z,4
2017-04-11T08:33:21.696Z,4
2017-04-11T08:34:31.606Z,0
2017-04-11T08:35:41.223Z,4
2017-04-11T08:36:51.445Z,4
2017-04-11T08:38:01.356Z,4
2017-04-11T08:39:11.891Z,4
2017-04-11T08:40:22.280Z,4
2017-04-11T08:41:32.190Z,4
2017-04-11T08:42:42.119Z,4
2017-04-11T08:43:51.724Z,8
2017-04-11T08:45:01.955Z,8
2017-04-11T08:46:11.554Z,8
2017-04-11T08:47:21.169Z,12
2017-04-11T08:48:30.784Z,12
2017-04-11T08:49:41.012Z,28
2017-04-11T08:50:50.614Z,16
2017-04-11T08:52:00.536Z,20
2017-04-11T08:53:10.449Z,48
2017-04-11T08:54:20.363Z,40
2017-04-11T08:55:30.586Z,40
2017-04-11T08:56:40.834Z,36
2017-04-11T08:57:51.063Z,32
2017-04-11T08:59:01.314Z,36
2017-04-11T09:00:10.927Z,32
2017-04-11T09:01:20.837Z,36
2017-04-11T09:02:30.751Z,28
2017-04-11T09:03:40.986Z,12
2017-04-11T09:04:51.208Z,12
2017-04-11T09:06:00.814Z,12
2017-04-11T09:07:10.729Z,20
2017-04-11T09:08:20.646Z,12
2017-04-11T09:09:30.870Z,12
2017-04-11T09:10:40.799Z,8
2017-04-11T09:11:51.030Z,4
2017-04-11T09:13:01.254Z,8
2017-04-11T09:14:11.166Z,4
2017-04-11T09:15:21.395Z,20
2017-04-11T09:16:31.305Z,32
2017-04-11T09:17:41.529Z,16
2017-04-11T09:18:51.134Z,12
2017-04-11T09:20:01.360Z,16
2017-04-11T09:21:11.584Z,12
2017-04-11T09:22:21.805Z,20
2017-04-11T09:23:32.033Z,20
2017-04-11T09:24:41.639Z,16
2017-04-11T09:25:51.872Z,12
2017-04-11T09:27:01.782Z,12
2017-04-11T09:28:11.693Z,16
2017-04-11T09:29:21.919Z,8
2017-04-11T09:30:32.143Z,12
2017-04-11T09:31:42.061Z,12
2017-04-11T09:32:51.978Z,8
2017-04-11T09:34:02.209Z,12
2017-04-11T09:35:12.135Z,8
2017-04-11T09:36:22.383Z,8
2017-04-11T09:37:32.301Z,8
2017-04-11T09:38:41.586Z,8
2017-04-11T09:39:51.824Z,4
2017-04-11T09:41:02.055Z,8
2017-04-11T09:42:11.976Z,4
2017-04-11T09:43:22.200Z,4
2017-04-11T09:44:31.800Z,4
2017-04-11T09:45:41.086Z,4
2017-04-11T09:46:51.308Z,4
2017-04-11T09:48:01.216Z,4
2017-04-11T09:49:11.454Z,4
2017-04-11T09:50:21.061Z,0
2017-04-11T09:51:30.975Z,4
2017-04-11T09:52:40.889Z,4
2017-04-11T09:53:50.494Z,4
2017-04-11T09:55:00.426Z,0
2017-04-11T09:56:10.031Z,4
2017-04-11T09:57:19.953Z,4
2017-04-11T09:58:29.568Z,4
2017-04-11T09:59:38.540Z,4
2017-04-11T10:00:48.451Z,8
2017-04-11T10:01:58.362Z,12
2017-04-11T10:03:07.970Z,12
2017-04-11T10:04:17.569Z,24
2017-04-11T10:05:27.804Z,20
2017-04-11T10:06:37.403Z,16
2017-04-11T10:07:47.324Z,16
2017-04-11T10:08:57.554Z,16
2017-04-11T10:10:07.154Z,16
2017-04-11T10:11:17.067Z,12
2017-04-11T10:12:26.669Z,12
2017-04-11T10:13:36.913Z,16
2017-04-11T10:14:46.517Z,16
2017-04-11T10:15:56.115Z,16
2017-04-11T10:17:05.721Z,8
2017-04-11T10:18:15.938Z,4
2017-04-11T10:19:25.541Z,16
2017-04-11T10:20:35.151Z,16
2017-04-11T10:21:45.378Z,16
2017-04-11T10:22:55.610Z,8
2017-04-11T10:24:05.522Z,20
2017-04-11T10:25:15.448Z,8
2017-04-11T10:26:25.043Z,4
2017-04-11T10:27:35.275Z,8
2017-04-11T10:28:45.193Z,8
2017-04-11T10:29:55.425Z,8
2017-04-11T10:31:05.343Z,8
2017-04-11T10:32:14.315Z,16
2017-04-11T10:33:24.546Z,16
2017-04-11T10:34:34.779Z,16
2017-04-11T10:35:44.380Z,12
2017-04-11T10:36:54.290Z,8
2017-04-11T10:38:04.248Z,8
2017-04-11T10:39:13.852Z,8
2017-04-11T10:40:23.775Z,8
2017-04-11T10:41:33.377Z,4
2017-04-11T10:42:42.978Z,4
2017-04-11T10:43:52.583Z,4
2017-04-11T10:45:01.873Z,4
2017-04-11T10:46:11.799Z,4
2017-04-11T10:47:21.754Z,8
2017-04-11T10:48:31.994Z,8
2017-04-11T10:49:41.921Z,8
2017-04-11T10:50:51.518Z,8
2017-04-11T10:52:01.121Z,4
2017-04-11T10:53:11.039Z,8
2017-04-11T10:54:21.269Z,8
2017-04-11T10:55:31.500Z,12
2017-04-11T10:56:41.413Z,8
2017-04-11T10:57:51.321Z,4
2017-04-11T10:59:00.922Z,4
2017-04-11T11:00:11.140Z,4
2017-04-11T11:01:21.052Z,4
2017-04-11T11:02:30.657Z,4
2017-04-11T11:03:40.879Z,4
2017-04-11T11:04:50.796Z,4
2017-04-11T11:06:01.018Z,8
2017-04-11T11:07:10.622Z,12
2017-04-11T11:08:20.850Z,12
2017-04-11T11:09:30.762Z,12
2017-04-11T11:10:40.364Z,8
2017-04-11T11:11:50.589Z,8
2017-04-11T11:12:59.884Z,4
2017-04-11T11:14:09.491Z,8
2017-04-11T11:15:19.406Z,8
2017-04-11T11:16:29.011Z,8
2017-04-11T11:17:38.932Z,4
2017-04-11T11:18:48.847Z,8
2017-04-11T11:19:58.810Z,8
2017-04-11T11:21:08.738Z,8
2017-04-11T11:22:18.976Z,8
2017-04-11T11:23:28.264Z,12
2017-04-11T11:24:38.183Z,12
2017-04-11T11:25:48.433Z,16
2017-04-11T11:26:58.347Z,16
2017-04-11T11:28:08.565Z,20
2017-04-11T11:29:18.173Z,8
2017-04-11T11:30:28.402Z,12
2017-04-11T11:31:38.319Z,16
2017-04-11T11:32:48.541Z,8
2017-04-11T11:33:58.769Z,8
2017-04-11T11:35:09.005Z,12
2017-04-11T11:36:18.604Z,8
2017-04-11T11:37:28.832Z,8
2017-04-11T11:38:39.053Z,12
2017-04-11T11:39:48.967Z,8
2017-04-11T11:40:58.569Z,8
2017-04-11T11:42:07.854Z,12
2017-04-11T11:43:18.078Z,12
2017-04-11T11:44:28.003Z,12
2017-04-11T11:45:38.232Z,12
2017-04-11T11:46:47.528Z,12
2017-04-11T11:47:57.184Z,8
2017-04-11T11:49:07.412Z,8
2017-04-11T11:50:16.703Z,8
2017-04-11T11:51:26.614Z,8
2017-04-11T11:52:36.836Z,8
2017-04-11T11:53:47.293Z,8
2017-04-11T11:54:57.216Z,8
2017-04-11T11:56:07.127Z,8
2017-04-11T11:57:17.046Z,4
2017-04-11T11:58:26.335Z,8
2017-04-11T11:59:36.254Z,12
2017-04-11T12:00:46.169Z,12
2017-04-11T12:01:56.093Z,12
2017-04-11T12:03:06.015Z,8
2017-04-11T12:04:15.618Z,12
2017-04-11T12:05:25.551Z,8
2017-04-11T12:06:35.782Z,8
2017-04-11T12:07:46.020Z,8
2017-04-11T12:08:55.939Z,8
2017-04-11T12:10:06.172Z,8
2017-04-11T12:11:15.775Z,12
2017-04-11T12:12:26.001Z,8
2017-04-11T12:13:35.609Z,16
2017-04-11T12:14:45.531Z,12
2017-04-11T12:15:54.842Z,16
2017-04-11T12:17:05.074Z,12
2017-04-11T12:18:14.678Z,8
2017-04-11T12:19:24.292Z,8
2017-04-11T12:20:34.232Z,4
2017-04-11T12:21:44.144Z,8
2017-04-11T12:22:54.372Z,12
2017-04-11T12:24:03.976Z,16
2017-04-11T12:25:13.888Z,12
2017-04-11T12:26:23.804Z,16
2017-04-11T12:27:33.726Z,12
2017-04-11T12:28:43.641Z,8
2017-04-11T12:29:52.933Z,8
2017-04-11T12:31:03.161Z,16
2017-04-11T12:32:13.094Z,16
2017-04-11T12:33:22.389Z,12
2017-04-11T12:34:32.613Z,12
2017-04-11T12:35:42.222Z,12
2017-04-11T12:36:52.131Z,16
2017-04-11T12:38:01.742Z,12
2017-04-11T12:39:11.667Z,16
2017-04-11T12:40:21.891Z,16
2017-04-11T12:41:32.122Z,16
2017-04-11T12:42:42.351Z,16
2017-04-11T12:43:52.271Z,16
2017-04-11T12:45:02.500Z,20
2017-04-11T12:46:12.691Z,20
2017-04-11T12:47:22.603Z,20
2017-04-11T12:48:32.822Z,20
2017-04-11T12:49:42.429Z,20
2017-04-11T12:50:52.649Z,16
2017-04-11T12:52:02.875Z,16
2017-04-11T12:53:12.793Z,20
2017-04-11T12:54:22.399Z,16
2017-04-11T12:55:32.320Z,20
2017-04-11T12:56:41.919Z,12
2017-04-11T12:57:51.518Z,8
2017-04-11T12:59:01.744Z,4
2017-04-11T13:00:11.046Z,8
2017-04-11T13:01:20.668Z,8
2017-04-11T13:02:30.269Z,16
2017-04-11T13:03:40.494Z,8
2017-04-11T13:04:50.423Z,8
2017-04-11T13:06:00.375Z,8
2017-04-11T13:07:10.287Z,8
2017-04-11T13:08:20.508Z,20
2017-04-11T13:09:30.740Z,24
2017-04-11T13:10:40.969Z,20
2017-04-11T13:11:51.196Z,24
2017-04-11T13:13:01.118Z,16
2017-04-11T13:14:11.343Z,24
2017-04-11T13:15:21.249Z,20
2017-04-11T13:16:30.861Z,12
2017-04-11T13:17:41.091Z,12
2017-04-11T13:18:51.321Z,12
2017-04-11T13:20:01.540Z,12
2017-04-11T13:21:11.456Z,12
2017-04-11T13:22:21.382Z,12
2017-04-11T13:23:31.296Z,12
2017-04-11T13:24:41.538Z,12
2017-04-11T13:25:51.450Z,8
2017-04-11T13:27:01.676Z,20
2017-04-11T13:28:11.905Z,8
2017-04-11T13:29:21.821Z,8
2017-04-11T13:30:31.424Z,12
2017-04-11T13:31:41.333Z,8
2017-04-11T13:32:51.259Z,20
2017-04-11T13:34:01.484Z,12
2017-04-11T13:35:11.401Z,12
2017-04-11T13:36:21.318Z,8
2017-04-11T13:37:31.547Z,8
2017-04-11T13:38:41.486Z,8
2017-04-11T13:39:51.719Z,4
2017-04-11T13:41:01.937Z,8
2017-04-11T13:42:11.545Z,16
2017-04-11T13:43:21.763Z,20
2017-04-11T13:44:31.359Z,8
2017-04-11T13:45:41.275Z,16
2017-04-11T13:46:51.192Z,20
2017-04-11T13:48:01.101Z,20
2017-04-11T13:49:11.028Z,20
2017-04-11T13:50:20.943Z,20
2017-04-11T13:51:31.164Z,20
2017-04-11T13:52:40.775Z,20
2017-04-11T13:53:50.376Z,24
2017-04-11T13:55:00.291Z,20
2017-04-11T13:56:09.887Z,24
2017-04-11T13:57:19.495Z,24
2017-04-11T13:58:29.098Z,24
2017-04-11T13:59:39.012Z,28
2017-04-11T14:00:48.932Z,28
2017-04-11T14:01:59.154Z,28
2017-04-11T14:03:09.384Z,20
2017-04-11T14:04:19.304Z,24
2017-04-11T14:05:28.913Z,8
2017-04-11T14:06:38.828Z,8
2017-04-11T14:07:48.744Z,24
2017-04-11T14:08:58.653Z,24
2017-04-11T14:10:08.584Z,24
2017-04-11T14:11:18.564Z,24
2017-04-11T14:12:28.174Z,16
2017-04-11T14:13:38.410Z,4
2017-04-11T14:14:48.324Z,8
2017-04-11T14:15:58.561Z,4
2017-04-11T14:17:08.482Z,24
2017-04-11T14:18:18.738Z,8
2017-04-11T14:19:28.657Z,4
2017-04-11T14:20:38.881Z,8
2017-04-11T14:21:48.793Z,4
2017-04-11T14:22:59.019Z,4
2017-04-11T14:24:08.931Z,8
2017-04-11T14:25:18.843Z,4
2017-04-11T14:26:28.757Z,12
2017-04-11T14:27:38.990Z,4
2017-04-11T14:28:48.591Z,4
2017-04-11T14:29:58.504Z,8
2017-04-11T14:31:08.110Z,4
2017-04-11T14:32:18.030Z,8
2017-04-11T14:33:27.639Z,8
2017-04-11T14:34:37.870Z,8
2017-04-11T14:35:48.100Z,12
2017-04-11T14:36:58.010Z,28
2017-04-11T14:38:07.922Z,24
2017-04-11T14:39:17.844Z,24
2017-04-11T14:40:27.754Z,24
2017-04-11T14:41:37.670Z,24
2017-04-11T14:42:47.896Z,8
2017-04-11T14:43:58.123Z,16
2017-04-11T14:45:08.041Z,24
2017-04-11T14:46:18.268Z,24
2017-04-11T14:47:28.489Z,4
2017-04-11T14:48:38.721Z,8
2017-04-11T14:49:48.956Z,8
2017-04-11T14:50:58.869Z,8
2017-04-11T14:52:09.108Z,8
2017-04-11T14:53:19.024Z,4
2017-04-11T14:54:28.941Z,4
2017-04-11T14:55:39.171Z,4
2017-04-11T14:56:49.087Z,4
2017-04-11T14:57:59.319Z,4
2017-04-11T14:59:09.551Z,4
2017-04-11T15:00:19.783Z,8
2017-04-11T15:01:29.711Z,4
2017-04-11T15:02:39.937Z,4
2017-04-11T15:03:49.547Z,4
2017-04-11T15:04:59.834Z,4
2017-04-11T15:06:09.796Z,8
2017-04-11T15:07:20.047Z,4
2017-04-11T15:08:30.416Z,4
2017-04-11T15:09:40.466Z,4
2017-04-11T15:10:50.692Z,4
2017-04-11T15:12:00.614Z,4
2017-04-11T15:13:10.538Z,4
2017-04-11T15:14:20.460Z,4
2017-04-11T15:15:30.380Z,4
2017-04-11T15:16:40.614Z,4
2017-04-11T15:17:50.850Z,16
2017-04-11T15:19:00.756Z,4
2017-04-11T15:20:10.664Z,8
2017-04-11T15:21:20.269Z,16
2017-04-11T15:22:30.496Z,20
2017-04-11T15:23:40.420Z,16
2017-04-11T15:24:50.645Z,8
2017-04-11T15:26:00.877Z,8
2017-04-11T15:27:11.111Z,8
2017-04-11T15:28:21.340Z,4
2017-04-11T15:29:30.937Z,12
2017-04-11T15:30:40.861Z,12
2017-04-11T15:31:51.083Z,16
2017-04-11T15:33:01.331Z,12
2017-04-11T15:34:11.252Z,16
2017-04-11T15:35:21.481Z,16
2017-04-11T15:36:31.707Z,12
2017-04-11T15:37:41.949Z,4
2017-04-11T15:38:51.557Z,12
2017-04-11T15:40:01.472Z,12
2017-04-11T15:41:11.392Z,12
2017-04-11T15:42:21.631Z,12
2017-04-11T15:43:31.866Z,4
2017-04-11T15:44:42.097Z,12
2017-04-11T15:45:52.323Z,8
2017-04-11T15:47:02.551Z,4
2017-04-11T15:48:12.468Z,4
2017-04-11T15:49:22.695Z,16
2017-04-11T15:50:32.608Z,16
2017-04-11T15:51:42.838Z,12
2017-04-11T15:52:53.099Z,16
2017-04-11T15:54:03.013Z,16
2017-04-11T15:55:12.927Z,16
2017-04-11T15:56:22.842Z,12
2017-04-11T15:57:33.065Z,8
2017-04-11T15:58:42.993Z,12
2017-04-11T15:59:53.236Z,8
2017-04-11T16:01:03.151Z,4
2017-04-11T16:02:12.765Z,8
2017-04-11T16:03:22.696Z,8
2017-04-11T16:04:32.611Z,4
2017-04-11T16:05:42.840Z,4
2017-04-11T16:06:52.446Z,8
2017-04-11T16:08:02.042Z,4
2017-04-11T16:09:12.270Z,8
2017-04-11T16:10:21.874Z,4
2017-04-11T16:11:31.784Z,8
2017-04-11T16:12:42.017Z,8
2017-04-11T16:13:51.929Z,4
2017-04-11T16:15:02.168Z,4
2017-04-11T16:16:11.466Z,4
2017-04-11T16:17:21.702Z,4
2017-04-11T16:18:31.303Z,4
2017-04-11T16:19:41.537Z,4
2017-04-11T16:20:51.681Z,4
2017-04-11T16:22:01.287Z,4
2017-04-11T16:23:11.520Z,0
2017-04-11T16:24:21.442Z,4
2017-04-11T16:25:31.676Z,4
2017-04-11T16:26:41.913Z,4
2017-04-11T16:27:52.146Z,4
2017-04-11T16:29:01.752Z,4
2017-04-11T16:30:11.670Z,4
2017-04-11T16:31:24.947Z,0
2017-04-11T16:33:06.953Z,0
2017-04-11T16:34:17.237Z,0
2017-04-11T16:35:26.838Z,4
2017-04-11T16:36:37.075Z,4
2017-04-11T16:37:47.315Z,4
2017-04-11T16:38:57.545Z,4
2017-04-11T16:40:07.820Z,4
2017-04-11T16:41:18.053Z,4
2017-04-11T16:42:28.293Z,4
2017-04-11T16:43:38.212Z,4
2017-04-11T16:44:48.182Z,4
2017-04-11T16:45:58.098Z,4
2017-04-11T16:47:08.346Z,4
2017-04-11T16:48:18.582Z,4
2017-04-11T16:49:28.813Z,4
2017-04-11T16:50:38.732Z,4
2017-04-11T16:51:48.655Z,4
2017-04-11T16:52:58.888Z,4
2017-04-11T16:54:09.124Z,4
2017-04-11T16:55:19.047Z,4
2017-04-11T16:56:28.967Z,4
2017-04-11T16:57:39.201Z,0
2017-04-11T16:58:49.437Z,0
2017-04-11T16:59:59.045Z,0
2017-04-11T17:01:09.285Z,0
2017-04-11T17:02:19.210Z,0
2017-04-11T17:03:29.436Z,4
2017-04-11T17:04:39.359Z,4
2017-04-11T17:05:49.601Z,0
2017-04-11T17:06:59.523Z,4
2017-04-11T17:08:09.756Z,0